sensor_id;sensor_type;location;lat;lon;timestamp;P1;durP1;ratioP1;P2;durP2;ratioP2
20026;SDS011;10174;42.688;23.344;2023-06-22T00:01:08;26.90;;;18.17;;
20026;SDS011;10174;42.688;23.344;2023-06-22T00:03:34;29.35;;;17.75;;
20026;SDS011;10174;42.688;23.344;2023-06-22T00:05:59;32.10;;;17.88;;
20026;SDS011;10174;42.688;23.344;2023-06-22T00:08:25;30.25;;;17.38;;
20026;SDS011;10174;42.688;23.344;2023-06-22T00:10:50;28.05;;;16.50;;
20026;SDS011;10174;42.688;23.344;2023-06-22T00:13:16;29.42;;;16.83;;
20026;SDS011;10174;42.688;23.344;2023-06-22T00:15:42;24.10;;;16.60;;
20026;SDS011;10174;42.688;23.344;2023-06-22T00:18:08;21.88;;;16.40;;
20026;SDS011;10174;42.688;23.344;2023-06-22T00:20:34;25.25;;;16.55;;
20026;SDS011;10174;42.688;23.344;2023-06-22T00:23:04;23.88;;;17.67;;
20026;SDS011;10174;42.688;23.344;2023-06-22T00:25:42;27.50;;;17.35;;
20026;SDS011;10174;42.688;23.344;2023-06-22T00:28:08;27.63;;;17.40;;
20026;SDS011;10174;42.688;23.344;2023-06-22T00:30:34;26.75;;;16.95;;
20026;SDS011;10174;42.688;23.344;2023-06-22T00:33:00;27.88;;;17.42;;
20026;SDS011;10174;42.688;23.344;2023-06-22T00:35:26;21.98;;;17.13;;
20026;SDS011;10174;42.688;23.344;2023-06-22T00:37:57;27.63;;;17.10;;
20026;SDS011;10174;42.688;23.344;2023-06-22T00:40:26;28.08;;;16.92;;
20026;SDS011;10174;42.688;23.344;2023-06-22T00:42:52;27.52;;;16.98;;
20026;SDS011;10174;42.688;23.344;2023-06-22T00:45:17;24.52;;;16.52;;
20026;SDS011;10174;42.688;23.344;2023-06-22T00:47:42;25.35;;;17.17;;
20026;SDS011;10174;42.688;23.344;2023-06-22T00:50:09;25.08;;;18.63;;
20026;SDS011;10174;42.688;23.344;2023-06-22T00:52:43;28.65;;;18.17;;
20026;SDS011;10174;42.688;23.344;2023-06-22T00:55:09;27.98;;;17.75;;
20026;SDS011;10174;42.688;23.344;2023-06-22T00:57:35;29.50;;;18.15;;
20026;SDS011;10174;42.688;23.344;2023-06-22T01:00:02;28.25;;;17.80;;
20026;SDS011;10174;42.688;23.344;2023-06-22T01:02:31;27.10;;;18.90;;
20026;SDS011;10174;42.688;23.344;2023-06-22T01:04:57;26.75;;;18.42;;
20026;SDS011;10174;42.688;23.344;2023-06-22T01:12:51;31.45;;;18.80;;
20026;SDS011;10174;42.688;23.344;2023-06-22T01:15:44;33.55;;;18.85;;
20026;SDS011;10174;42.688;23.344;2023-06-22T01:18:14;27.88;;;19.15;;
20026;SDS011;10174;42.688;23.344;2023-06-22T01:20:42;29.10;;;19.20;;
20026;SDS011;10174;42.688;23.344;2023-06-22T01:28:45;30.10;;;19.15;;
20026;SDS011;10174;42.688;23.344;2023-06-22T01:31:13;33.45;;;18.58;;
20026;SDS011;10174;42.688;23.344;2023-06-22T01:33:43;28.85;;;19.55;;
20026;SDS011;10174;42.688;23.344;2023-06-22T01:36:10;28.30;;;19.08;;
20026;SDS011;10174;42.688;23.344;2023-06-22T01:38:38;27.80;;;19.00;;
20026;SDS011;10174;42.688;23.344;2023-06-22T01:41:04;26.60;;;18.95;;
20026;SDS011;10174;42.688;23.344;2023-06-22T01:43:30;30.17;;;20.25;;
20026;SDS011;10174;42.688;23.344;2023-06-22T01:45:59;32.40;;;19.85;;
20026;SDS011;10174;42.688;23.344;2023-06-22T01:48:26;33.58;;;20.00;;
20026;SDS011;10174;42.688;23.344;2023-06-22T01:50:52;26.77;;;19.63;;
20026;SDS011;10174;42.688;23.344;2023-06-22T01:53:20;30.30;;;19.73;;
20026;SDS011;10174;42.688;23.344;2023-06-22T01:55:46;37.70;;;21.27;;
20026;SDS011;10174;42.688;23.344;2023-06-22T01:58:12;38.30;;;21.73;;
20026;SDS011;10174;42.688;23.344;2023-06-22T02:00:38;33.03;;;20.92;;
20026;SDS011;10174;42.688;23.344;2023-06-22T02:03:26;32.95;;;20.50;;
20026;SDS011;10174;42.688;23.344;2023-06-22T02:05:58;34.13;;;20.75;;
20026;SDS011;10174;42.688;23.344;2023-06-22T02:08:37;33.33;;;19.50;;
20026;SDS011;10174;42.688;23.344;2023-06-22T02:11:06;32.65;;;20.48;;
20026;SDS011;10174;42.688;23.344;2023-06-22T02:13:34;38.28;;;20.02;;
20026;SDS011;10174;42.688;23.344;2023-06-22T02:16:01;29.48;;;19.40;;
20026;SDS011;10174;42.688;23.344;2023-06-22T02:18:26;30.15;;;19.75;;
20026;SDS011;10174;42.688;23.344;2023-06-22T02:20:53;31.60;;;21.05;;
20026;SDS011;10174;42.688;23.344;2023-06-22T02:23:18;39.13;;;20.95;;
20026;SDS011;10174;42.688;23.344;2023-06-22T02:25:43;34.35;;;20.10;;
20026;SDS011;10174;42.688;23.344;2023-06-22T02:28:10;34.25;;;20.48;;
20026;SDS011;10174;42.688;23.344;2023-06-22T02:30:36;33.40;;;20.88;;
20026;SDS011;10174;42.688;23.344;2023-06-22T02:33:01;32.33;;;20.98;;
20026;SDS011;10174;42.688;23.344;2023-06-22T02:35:27;32.45;;;20.30;;
20026;SDS011;10174;42.688;23.344;2023-06-22T02:37:57;34.50;;;20.45;;
20026;SDS011;10174;42.688;23.344;2023-06-22T02:40:24;31.52;;;19.70;;
20026;SDS011;10174;42.688;23.344;2023-06-22T02:42:50;34.55;;;20.20;;
20026;SDS011;10174;42.688;23.344;2023-06-22T02:45:15;30.40;;;19.48;;
20026;SDS011;10174;42.688;23.344;2023-06-22T02:47:41;38.25;;;19.48;;
20026;SDS011;10174;42.688;23.344;2023-06-22T02:50:06;38.38;;;20.85;;
20026;SDS011;10174;42.688;23.344;2023-06-22T02:52:32;38.63;;;20.05;;
20026;SDS011;10174;42.688;23.344;2023-06-22T02:54:57;29.33;;;18.65;;
20026;SDS011;10174;42.688;23.344;2023-06-22T02:57:23;32.28;;;20.42;;
20026;SDS011;10174;42.688;23.344;2023-06-22T02:59:48;39.65;;;20.98;;
20026;SDS011;10174;42.688;23.344;2023-06-22T03:02:13;37.20;;;20.05;;
20026;SDS011;10174;42.688;23.344;2023-06-22T03:04:39;37.33;;;19.65;;
20026;SDS011;10174;42.688;23.344;2023-06-22T03:07:04;45.70;;;20.77;;
20026;SDS011;10174;42.688;23.344;2023-06-22T03:09:30;39.22;;;20.38;;
20026;SDS011;10174;42.688;23.344;2023-06-22T03:11:55;39.00;;;20.90;;
20026;SDS011;10174;42.688;23.344;2023-06-22T03:14:21;45.25;;;20.75;;
20026;SDS011;10174;42.688;23.344;2023-06-22T03:16:46;39.97;;;20.73;;
20026;SDS011;10174;42.688;23.344;2023-06-22T03:19:12;35.78;;;18.90;;
20026;SDS011;10174;42.688;23.344;2023-06-22T03:21:38;43.08;;;20.83;;
20026;SDS011;10174;42.688;23.344;2023-06-22T03:24:05;39.45;;;21.52;;
20026;SDS011;10174;42.688;23.344;2023-06-22T03:26:30;42.47;;;20.67;;
20026;SDS011;10174;42.688;23.344;2023-06-22T03:28:56;28.90;;;19.08;;
20026;SDS011;10174;42.688;23.344;2023-06-22T03:31:21;35.83;;;20.30;;
20026;SDS011;10174;42.688;23.344;2023-06-22T03:33:47;32.60;;;18.73;;
20026;SDS011;10174;42.688;23.344;2023-06-22T03:36:14;35.80;;;18.67;;
20026;SDS011;10174;42.688;23.344;2023-06-22T03:38:43;29.50;;;18.50;;
20026;SDS011;10174;42.688;23.344;2023-06-22T03:41:13;33.22;;;17.77;;
20026;SDS011;10174;42.688;23.344;2023-06-22T03:43:38;40.35;;;17.90;;
20026;SDS011;10174;42.688;23.344;2023-06-22T03:46:04;37.50;;;18.88;;
20026;SDS011;10174;42.688;23.344;2023-06-22T03:48:29;38.67;;;19.05;;
20026;SDS011;10174;42.688;23.344;2023-06-22T03:50:55;33.88;;;18.70;;
20026;SDS011;10174;42.688;23.344;2023-06-22T03:53:20;42.83;;;20.35;;
20026;SDS011;10174;42.688;23.344;2023-06-22T03:55:49;42.67;;;20.33;;
20026;SDS011;10174;42.688;23.344;2023-06-22T03:58:16;39.30;;;18.98;;
20026;SDS011;10174;42.688;23.344;2023-06-22T04:00:43;32.10;;;19.65;;
20026;SDS011;10174;42.688;23.344;2023-06-22T04:03:13;29.60;;;19.30;;
20026;SDS011;10174;42.688;23.344;2023-06-22T04:05:39;28.55;;;18.23;;
20026;SDS011;10174;42.688;23.344;2023-06-22T04:08:05;28.55;;;19.55;;
20026;SDS011;10174;42.688;23.344;2023-06-22T04:10:30;30.55;;;18.67;;
20026;SDS011;10174;42.688;23.344;2023-06-22T04:12:56;29.88;;;18.88;;
20026;SDS011;10174;42.688;23.344;2023-06-22T04:15:21;30.58;;;19.30;;
20026;SDS011;10174;42.688;23.344;2023-06-22T04:17:47;30.42;;;19.33;;
20026;SDS011;10174;42.688;23.344;2023-06-22T04:20:12;30.98;;;17.50;;
20026;SDS011;10174;42.688;23.344;2023-06-22T04:22:38;35.83;;;18.23;;
20026;SDS011;10174;42.688;23.344;2023-06-22T04:25:06;25.45;;;16.42;;
20026;SDS011;10174;42.688;23.344;2023-06-22T04:27:32;32.13;;;18.25;;
20026;SDS011;10174;42.688;23.344;2023-06-22T04:30:02;28.20;;;17.80;;
20026;SDS011;10174;42.688;23.344;2023-06-22T04:32:29;24.90;;;16.67;;
20026;SDS011;10174;42.688;23.344;2023-06-22T04:34:54;26.58;;;16.58;;
20026;SDS011;10174;42.688;23.344;2023-06-22T04:37:19;29.15;;;18.60;;
20026;SDS011;10174;42.688;23.344;2023-06-22T04:39:48;34.20;;;19.17;;
20026;SDS011;10174;42.688;23.344;2023-06-22T04:42:14;36.50;;;18.45;;
20026;SDS011;10174;42.688;23.344;2023-06-22T04:44:40;36.47;;;20.90;;
20026;SDS011;10174;42.688;23.344;2023-06-22T04:47:06;32.30;;;19.83;;
20026;SDS011;10174;42.688;23.344;2023-06-22T04:49:33;32.60;;;19.50;;
20026;SDS011;10174;42.688;23.344;2023-06-22T04:52:02;32.97;;;20.88;;
20026;SDS011;10174;42.688;23.344;2023-06-22T04:54:29;30.98;;;19.15;;
20026;SDS011;10174;42.688;23.344;2023-06-22T04:56:58;29.98;;;19.58;;
20026;SDS011;10174;42.688;23.344;2023-06-22T04:59:28;33.15;;;20.30;;
20026;SDS011;10174;42.688;23.344;2023-06-22T05:01:58;29.75;;;19.63;;
20026;SDS011;10174;42.688;23.344;2023-06-22T05:04:25;31.20;;;20.65;;
20026;SDS011;10174;42.688;23.344;2023-06-22T05:06:52;32.25;;;19.75;;
20026;SDS011;10174;42.688;23.344;2023-06-22T05:09:19;59.85;;;43.42;;
20026;SDS011;10174;42.688;23.344;2023-06-22T05:11:45;29.83;;;18.63;;
20026;SDS011;10174;42.688;23.344;2023-06-22T05:14:11;29.17;;;19.35;;
20026;SDS011;10174;42.688;23.344;2023-06-22T05:16:37;30.63;;;18.63;;
20026;SDS011;10174;42.688;23.344;2023-06-22T05:19:03;28.30;;;19.30;;
20026;SDS011;10174;42.688;23.344;2023-06-22T05:21:29;33.38;;;21.25;;
20026;SDS011;10174;42.688;23.344;2023-06-22T05:23:55;34.83;;;19.05;;
20026;SDS011;10174;42.688;23.344;2023-06-22T05:26:25;43.60;;;19.27;;
20026;SDS011;10174;42.688;23.344;2023-06-22T05:28:51;46.15;;;24.08;;
20026;SDS011;10174;42.688;23.344;2023-06-22T05:31:17;34.40;;;19.83;;
20026;SDS011;10174;42.688;23.344;2023-06-22T05:33:44;48.95;;;31.20;;
20026;SDS011;10174;42.688;23.344;2023-06-22T05:36:10;79.78;;;35.53;;
20026;SDS011;10174;42.688;23.344;2023-06-22T05:38:37;30.65;;;15.15;;
20026;SDS011;10174;42.688;23.344;2023-06-22T05:41:03;36.90;;;16.45;;
20026;SDS011;10174;42.688;23.344;2023-06-22T05:43:28;26.42;;;16.40;;
20026;SDS011;10174;42.688;23.344;2023-06-22T05:45:54;33.13;;;16.70;;
20026;SDS011;10174;42.688;23.344;2023-06-22T05:48:19;29.15;;;16.95;;
20026;SDS011;10174;42.688;23.344;2023-06-22T05:50:45;31.88;;;17.27;;
20026;SDS011;10174;42.688;23.344;2023-06-22T05:53:10;35.17;;;17.35;;
20026;SDS011;10174;42.688;23.344;2023-06-22T05:55:36;32.38;;;15.88;;
20026;SDS011;10174;42.688;23.344;2023-06-22T05:58:01;28.55;;;16.50;;
20026;SDS011;10174;42.688;23.344;2023-06-22T06:00:28;30.92;;;16.05;;
20026;SDS011;10174;42.688;23.344;2023-06-22T06:02:54;29.45;;;15.90;;
20026;SDS011;10174;42.688;23.344;2023-06-22T06:05:19;29.42;;;16.02;;
20026;SDS011;10174;42.688;23.344;2023-06-22T06:07:45;31.05;;;17.42;;
20026;SDS011;10174;42.688;23.344;2023-06-22T06:10:10;36.00;;;16.85;;
20026;SDS011;10174;42.688;23.344;2023-06-22T06:12:36;57.13;;;18.38;;
20026;SDS011;10174;42.688;23.344;2023-06-22T06:15:02;25.80;;;17.00;;
20026;SDS011;10174;42.688;23.344;2023-06-22T06:17:28;32.40;;;16.77;;
20026;SDS011;10174;42.688;23.344;2023-06-22T06:19:53;27.63;;;17.85;;
20026;SDS011;10174;42.688;23.344;2023-06-22T06:22:19;32.58;;;18.10;;
20026;SDS011;10174;42.688;23.344;2023-06-22T06:24:46;27.25;;;15.95;;
20026;SDS011;10174;42.688;23.344;2023-06-22T06:27:12;27.98;;;15.85;;
20026;SDS011;10174;42.688;23.344;2023-06-22T06:29:38;30.88;;;16.52;;
20026;SDS011;10174;42.688;23.344;2023-06-22T06:32:03;26.40;;;16.30;;
20026;SDS011;10174;42.688;23.344;2023-06-22T06:34:29;26.63;;;16.05;;
20026;SDS011;10174;42.688;23.344;2023-06-22T06:36:54;27.27;;;16.25;;
20026;SDS011;10174;42.688;23.344;2023-06-22T06:39:19;33.05;;;18.98;;
20026;SDS011;10174;42.688;23.344;2023-06-22T06:41:45;20.58;;;16.27;;
20026;SDS011;10174;42.688;23.344;2023-06-22T06:44:11;27.08;;;15.88;;
20026;SDS011;10174;42.688;23.344;2023-06-22T06:46:36;26.58;;;16.27;;
20026;SDS011;10174;42.688;23.344;2023-06-22T06:49:02;29.30;;;18.67;;
20026;SDS011;10174;42.688;23.344;2023-06-22T06:51:28;28.63;;;16.95;;
20026;SDS011;10174;42.688;23.344;2023-06-22T06:53:54;28.02;;;16.85;;
20026;SDS011;10174;42.688;23.344;2023-06-22T06:56:19;28.17;;;17.13;;
20026;SDS011;10174;42.688;23.344;2023-06-22T06:58:45;28.20;;;16.15;;
20026;SDS011;10174;42.688;23.344;2023-06-22T07:01:11;31.27;;;15.40;;
20026;SDS011;10174;42.688;23.344;2023-06-22T07:03:37;26.23;;;15.25;;
20026;SDS011;10174;42.688;23.344;2023-06-22T07:06:03;28.25;;;15.50;;
20026;SDS011;10174;42.688;23.344;2023-06-22T07:08:29;28.95;;;17.50;;
20026;SDS011;10174;42.688;23.344;2023-06-22T07:10:54;24.27;;;16.60;;
20026;SDS011;10174;42.688;23.344;2023-06-22T07:13:19;28.92;;;17.08;;
20026;SDS011;10174;42.688;23.344;2023-06-22T07:15:45;27.70;;;15.82;;
20026;SDS011;10174;42.688;23.344;2023-06-22T07:18:10;51.63;;;29.73;;
20026;SDS011;10174;42.688;23.344;2023-06-22T07:20:36;30.95;;;16.02;;
20026;SDS011;10174;42.688;23.344;2023-06-22T07:23:01;30.10;;;18.73;;
20026;SDS011;10174;42.688;23.344;2023-06-22T07:25:27;38.75;;;23.38;;
20026;SDS011;10174;42.688;23.344;2023-06-22T07:28:02;26.23;;;17.60;;
20026;SDS011;10174;42.688;23.344;2023-06-22T07:30:29;20.20;;;14.50;;
20026;SDS011;10174;42.688;23.344;2023-06-22T07:32:56;25.13;;;14.95;;
20026;SDS011;10174;42.688;23.344;2023-06-22T07:35:23;31.38;;;14.73;;
20026;SDS011;10174;42.688;23.344;2023-06-22T07:37:48;25.70;;;15.27;;
20026;SDS011;10174;42.688;23.344;2023-06-22T07:40:14;29.33;;;15.63;;
20026;SDS011;10174;42.688;23.344;2023-06-22T07:42:39;30.45;;;16.45;;
20026;SDS011;10174;42.688;23.344;2023-06-22T07:45:05;27.75;;;15.25;;
20026;SDS011;10174;42.688;23.344;2023-06-22T07:47:33;25.55;;;15.93;;
20026;SDS011;10174;42.688;23.344;2023-06-22T07:50:00;19.98;;;14.65;;
20026;SDS011;10174;42.688;23.344;2023-06-22T07:52:30;22.92;;;14.55;;
20026;SDS011;10174;42.688;23.344;2023-06-22T07:54:56;28.33;;;14.75;;
20026;SDS011;10174;42.688;23.344;2023-06-22T07:57:22;25.90;;;15.45;;
20026;SDS011;10174;42.688;23.344;2023-06-22T07:59:47;29.30;;;14.80;;
20026;SDS011;10174;42.688;23.344;2023-06-22T08:02:13;20.33;;;14.35;;
20026;SDS011;10174;42.688;23.344;2023-06-22T08:04:38;23.33;;;13.50;;
20026;SDS011;10174;42.688;23.344;2023-06-22T08:07:04;29.83;;;15.52;;
20026;SDS011;10174;42.688;23.344;2023-06-22T08:09:30;24.17;;;15.13;;
20026;SDS011;10174;42.688;23.344;2023-06-22T08:11:57;27.23;;;15.57;;
20026;SDS011;10174;42.688;23.344;2023-06-22T08:14:26;34.20;;;15.65;;
20026;SDS011;10174;42.688;23.344;2023-06-22T08:16:52;32.53;;;16.65;;
20026;SDS011;10174;42.688;23.344;2023-06-22T08:19:17;31.10;;;16.55;;
20026;SDS011;10174;42.688;23.344;2023-06-22T08:21:43;32.35;;;15.88;;
20026;SDS011;10174;42.688;23.344;2023-06-22T08:24:09;26.30;;;15.13;;
20026;SDS011;10174;42.688;23.344;2023-06-22T08:26:34;32.58;;;15.80;;
20026;SDS011;10174;42.688;23.344;2023-06-22T08:29:02;30.30;;;15.40;;
20026;SDS011;10174;42.688;23.344;2023-06-22T08:31:30;27.27;;;15.02;;
20026;SDS011;10174;42.688;23.344;2023-06-22T08:33:58;29.27;;;13.32;;
20026;SDS011;10174;42.688;23.344;2023-06-22T08:36:24;26.88;;;13.88;;
20026;SDS011;10174;42.688;23.344;2023-06-22T08:38:50;23.77;;;15.52;;
20026;SDS011;10174;42.688;23.344;2023-06-22T08:41:16;23.13;;;14.90;;
20026;SDS011;10174;42.688;23.344;2023-06-22T08:43:42;24.83;;;14.82;;
20026;SDS011;10174;42.688;23.344;2023-06-22T08:46:09;21.77;;;12.98;;
20026;SDS011;10174;42.688;23.344;2023-06-22T08:48:35;30.70;;;14.20;;
20026;SDS011;10174;42.688;23.344;2023-06-22T08:51:00;25.13;;;13.88;;
20026;SDS011;10174;42.688;23.344;2023-06-22T08:53:25;25.83;;;16.83;;
20026;SDS011;10174;42.688;23.344;2023-06-22T08:55:51;29.88;;;14.18;;
20026;SDS011;10174;42.688;23.344;2023-06-22T08:58:16;23.48;;;12.82;;
20026;SDS011;10174;42.688;23.344;2023-06-22T09:00:43;23.23;;;12.80;;
20026;SDS011;10174;42.688;23.344;2023-06-22T09:03:08;18.52;;;11.88;;
20026;SDS011;10174;42.688;23.344;2023-06-22T09:05:34;27.92;;;13.13;;
20026;SDS011;10174;42.688;23.344;2023-06-22T09:07:59;15.80;;;12.10;;
20026;SDS011;10174;42.688;23.344;2023-06-22T09:10:25;18.55;;;11.25;;
20026;SDS011;10174;42.688;23.344;2023-06-22T09:12:50;16.02;;;9.82;;
20026;SDS011;10174;42.688;23.344;2023-06-22T09:15:16;20.88;;;10.85;;
20026;SDS011;10174;42.688;23.344;2023-06-22T09:17:41;14.68;;;9.82;;
20026;SDS011;10174;42.688;23.344;2023-06-22T09:20:07;18.63;;;11.10;;
20026;SDS011;10174;42.688;23.344;2023-06-22T09:22:35;18.75;;;11.52;;
20026;SDS011;10174;42.688;23.344;2023-06-22T09:25:01;20.40;;;11.50;;
20026;SDS011;10174;42.688;23.344;2023-06-22T09:27:27;20.73;;;12.68;;
20026;SDS011;10174;42.688;23.344;2023-06-22T09:29:53;41.30;;;23.40;;
20026;SDS011;10174;42.688;23.344;2023-06-22T09:32:18;21.40;;;11.30;;
20026;SDS011;10174;42.688;23.344;2023-06-22T09:34:43;23.65;;;11.00;;
20026;SDS011;10174;42.688;23.344;2023-06-22T09:37:09;21.55;;;11.40;;
20026;SDS011;10174;42.688;23.344;2023-06-22T09:39:34;14.98;;;11.45;;
20026;SDS011;10174;42.688;23.344;2023-06-22T09:42:01;19.00;;;12.73;;
20026;SDS011;10174;42.688;23.344;2023-06-22T09:44:27;16.20;;;10.10;;
20026;SDS011;10174;42.688;23.344;2023-06-22T09:46:52;19.75;;;10.93;;
20026;SDS011;10174;42.688;23.344;2023-06-22T09:49:18;17.33;;;11.60;;
20026;SDS011;10174;42.688;23.344;2023-06-22T09:51:43;16.70;;;11.43;;
20026;SDS011;10174;42.688;23.344;2023-06-22T09:54:09;19.00;;;11.35;;
20026;SDS011;10174;42.688;23.344;2023-06-22T09:56:34;21.48;;;12.45;;
20026;SDS011;10174;42.688;23.344;2023-06-22T09:58:59;20.52;;;10.43;;
20026;SDS011;10174;42.688;23.344;2023-06-22T10:01:25;17.08;;;11.18;;
20026;SDS011;10174;42.688;23.344;2023-06-22T10:03:52;21.02;;;11.50;;
20026;SDS011;10174;42.688;23.344;2023-06-22T10:06:21;18.20;;;11.05;;
20026;SDS011;10174;42.688;23.344;2023-06-22T10:08:46;11.73;;;9.98;;
20026;SDS011;10174;42.688;23.344;2023-06-22T10:11:13;21.05;;;10.15;;
20026;SDS011;10174;42.688;23.344;2023-06-22T10:13:39;12.88;;;10.10;;
20026;SDS011;10174;42.688;23.344;2023-06-22T10:16:04;12.40;;;9.23;;
20026;SDS011;10174;42.688;23.344;2023-06-22T10:18:30;12.77;;;9.27;;
20026;SDS011;10174;42.688;23.344;2023-06-22T10:20:55;16.10;;;10.60;;
20026;SDS011;10174;42.688;23.344;2023-06-22T10:23:21;17.30;;;9.63;;
20026;SDS011;10174;42.688;23.344;2023-06-22T10:25:47;17.42;;;10.00;;
20026;SDS011;10174;42.688;23.344;2023-06-22T10:28:13;11.50;;;10.30;;
20026;SDS011;10174;42.688;23.344;2023-06-22T10:30:41;14.50;;;11.45;;
20026;SDS011;10174;42.688;23.344;2023-06-22T10:33:08;16.85;;;10.73;;
20026;SDS011;10174;42.688;23.344;2023-06-22T10:35:34;13.98;;;10.32;;
20026;SDS011;10174;42.688;23.344;2023-06-22T10:38:02;16.17;;;10.52;;
20026;SDS011;10174;42.688;23.344;2023-06-22T10:40:28;16.05;;;11.55;;
20026;SDS011;10174;42.688;23.344;2023-06-22T10:42:53;12.75;;;10.65;;
20026;SDS011;10174;42.688;23.344;2023-06-22T10:45:19;18.35;;;10.85;;
20026;SDS011;10174;42.688;23.344;2023-06-22T10:47:44;81.38;;;13.05;;
20026;SDS011;10174;42.688;23.344;2023-06-22T10:50:10;13.80;;;10.32;;
20026;SDS011;10174;42.688;23.344;2023-06-22T10:52:35;12.50;;;9.95;;
20026;SDS011;10174;42.688;23.344;2023-06-22T10:55:01;15.57;;;10.32;;
20026;SDS011;10174;42.688;23.344;2023-06-22T10:57:26;13.27;;;8.93;;
20026;SDS011;10174;42.688;23.344;2023-06-22T10:59:52;13.05;;;9.93;;
20026;SDS011;10174;42.688;23.344;2023-06-22T11:02:17;14.00;;;10.10;;
20026;SDS011;10174;42.688;23.344;2023-06-22T11:04:43;13.45;;;9.82;;
20026;SDS011;10174;42.688;23.344;2023-06-22T11:07:08;16.55;;;11.63;;
20026;SDS011;10174;42.688;23.344;2023-06-22T11:09:34;17.23;;;10.85;;
20026;SDS011;10174;42.688;23.344;2023-06-22T11:12:00;15.20;;;11.35;;
20026;SDS011;10174;42.688;23.344;2023-06-22T11:14:25;21.90;;;13.18;;
20026;SDS011;10174;42.688;23.344;2023-06-22T11:16:51;12.93;;;10.27;;
20026;SDS011;10174;42.688;23.344;2023-06-22T11:19:16;16.80;;;10.15;;
20026;SDS011;10174;42.688;23.344;2023-06-22T11:21:42;12.40;;;10.10;;
20026;SDS011;10174;42.688;23.344;2023-06-22T11:24:08;20.08;;;13.73;;
20026;SDS011;10174;42.688;23.344;2023-06-22T11:26:33;14.07;;;9.85;;
20026;SDS011;10174;42.688;23.344;2023-06-22T11:28:59;13.65;;;9.43;;
20026;SDS011;10174;42.688;23.344;2023-06-22T11:31:24;15.25;;;10.20;;
20026;SDS011;10174;42.688;23.344;2023-06-22T11:33:50;11.85;;;9.65;;
20026;SDS011;10174;42.688;23.344;2023-06-22T11:36:16;18.70;;;10.13;;
20026;SDS011;10174;42.688;23.344;2023-06-22T11:38:42;14.10;;;9.55;;
20026;SDS011;10174;42.688;23.344;2023-06-22T11:41:08;13.02;;;10.10;;
20026;SDS011;10174;42.688;23.344;2023-06-22T11:43:34;18.73;;;11.38;;
20026;SDS011;10174;42.688;23.344;2023-06-22T11:46:01;16.38;;;11.30;;
20026;SDS011;10174;42.688;23.344;2023-06-22T11:48:27;16.85;;;10.15;;
20026;SDS011;10174;42.688;23.344;2023-06-22T11:50:52;19.35;;;10.52;;
20026;SDS011;10174;42.688;23.344;2023-06-22T11:53:19;17.45;;;13.25;;
20026;SDS011;10174;42.688;23.344;2023-06-22T11:55:46;11.82;;;9.77;;
20026;SDS011;10174;42.688;23.344;2023-06-22T11:58:12;16.50;;;9.88;;
20026;SDS011;10174;42.688;23.344;2023-06-22T12:00:37;12.52;;;9.23;;
20026;SDS011;10174;42.688;23.344;2023-06-22T12:03:03;17.70;;;12.07;;
20026;SDS011;10174;42.688;23.344;2023-06-22T12:05:28;10.68;;;8.50;;
20026;SDS011;10174;42.688;23.344;2023-06-22T12:07:54;14.98;;;9.63;;
20026;SDS011;10174;42.688;23.344;2023-06-22T12:10:20;16.85;;;8.90;;
20026;SDS011;10174;42.688;23.344;2023-06-22T12:12:46;13.50;;;9.20;;
20026;SDS011;10174;42.688;23.344;2023-06-22T12:15:11;15.88;;;10.30;;
20026;SDS011;10174;42.688;23.344;2023-06-22T12:17:37;12.60;;;10.60;;
20026;SDS011;10174;42.688;23.344;2023-06-22T12:20:02;16.05;;;10.77;;
20026;SDS011;10174;42.688;23.344;2023-06-22T12:22:31;15.07;;;11.00;;
20026;SDS011;10174;42.688;23.344;2023-06-22T12:24:57;19.05;;;10.60;;
20026;SDS011;10174;42.688;23.344;2023-06-22T12:27:22;13.93;;;11.27;;
20026;SDS011;10174;42.688;23.344;2023-06-22T12:29:48;16.95;;;11.73;;
20026;SDS011;10174;42.688;23.344;2023-06-22T12:32:13;19.33;;;10.25;;
20026;SDS011;10174;42.688;23.344;2023-06-22T12:34:41;16.50;;;10.50;;
20026;SDS011;10174;42.688;23.344;2023-06-22T12:37:07;13.27;;;10.88;;
20026;SDS011;10174;42.688;23.344;2023-06-22T12:39:33;17.58;;;11.15;;
20026;SDS011;10174;42.688;23.344;2023-06-22T12:41:58;15.55;;;11.32;;
20026;SDS011;10174;42.688;23.344;2023-06-22T12:44:23;21.90;;;11.57;;
20026;SDS011;10174;42.688;23.344;2023-06-22T12:46:49;16.77;;;11.82;;
20026;SDS011;10174;42.688;23.344;2023-06-22T12:49:14;23.83;;;12.43;;
20026;SDS011;10174;42.688;23.344;2023-06-22T12:51:40;17.77;;;10.98;;
20026;SDS011;10174;42.688;23.344;2023-06-22T12:54:09;17.30;;;11.00;;
20026;SDS011;10174;42.688;23.344;2023-06-22T12:56:36;20.25;;;11.00;;
20026;SDS011;10174;42.688;23.344;2023-06-22T12:59:02;16.50;;;11.68;;
20026;SDS011;10174;42.688;23.344;2023-06-22T13:01:28;30.25;;;12.23;;
20026;SDS011;10174;42.688;23.344;2023-06-22T13:03:55;28.10;;;14.07;;
20026;SDS011;10174;42.688;23.344;2023-06-22T13:06:20;28.25;;;13.23;;
20026;SDS011;10174;42.688;23.344;2023-06-22T13:08:45;28.00;;;13.23;;
20026;SDS011;10174;42.688;23.344;2023-06-22T13:11:11;21.83;;;12.93;;
20026;SDS011;10174;42.688;23.344;2023-06-22T13:13:36;21.38;;;12.90;;
20026;SDS011;10174;42.688;23.344;2023-06-22T13:16:03;28.20;;;14.93;;
20026;SDS011;10174;42.688;23.344;2023-06-22T13:18:29;25.60;;;14.27;;
20026;SDS011;10174;42.688;23.344;2023-06-22T13:20:54;25.10;;;15.23;;
20026;SDS011;10174;42.688;23.344;2023-06-22T13:23:20;25.27;;;16.00;;
20026;SDS011;10174;42.688;23.344;2023-06-22T13:25:46;24.95;;;15.30;;
20026;SDS011;10174;42.688;23.344;2023-06-22T13:28:12;24.40;;;14.13;;
20026;SDS011;10174;42.688;23.344;2023-06-22T13:30:39;33.13;;;15.85;;
20026;SDS011;10174;42.688;23.344;2023-06-22T13:33:05;30.05;;;15.38;;
20026;SDS011;10174;42.688;23.344;2023-06-22T13:35:30;32.75;;;16.45;;
20026;SDS011;10174;42.688;23.344;2023-06-22T13:37:56;29.00;;;15.07;;
20026;SDS011;10174;42.688;23.344;2023-06-22T13:40:21;25.48;;;15.25;;
20026;SDS011;10174;42.688;23.344;2023-06-22T13:42:47;30.75;;;15.60;;
20026;SDS011;10174;42.688;23.344;2023-06-22T13:45:12;34.60;;;15.20;;
20026;SDS011;10174;42.688;23.344;2023-06-22T13:47:37;24.20;;;14.52;;
20026;SDS011;10174;42.688;23.344;2023-06-22T13:50:03;28.27;;;17.02;;
20026;SDS011;10174;42.688;23.344;2023-06-22T13:52:28;30.45;;;15.50;;
20026;SDS011;10174;42.688;23.344;2023-06-22T13:54:54;33.83;;;15.73;;
20026;SDS011;10174;42.688;23.344;2023-06-22T13:57:19;29.00;;;15.13;;
20026;SDS011;10174;42.688;23.344;2023-06-22T13:59:45;27.98;;;15.55;;
20026;SDS011;10174;42.688;23.344;2023-06-22T14:02:10;27.70;;;16.15;;
20026;SDS011;10174;42.688;23.344;2023-06-22T14:04:36;23.10;;;15.23;;
20026;SDS011;10174;42.688;23.344;2023-06-22T14:07:01;41.22;;;17.73;;
20026;SDS011;10174;42.688;23.344;2023-06-22T14:09:27;42.75;;;20.70;;
20026;SDS011;10174;42.688;23.344;2023-06-22T14:11:53;32.08;;;17.65;;
20026;SDS011;10174;42.688;23.344;2023-06-22T14:14:19;30.10;;;16.70;;